Time;durP1;ratioP1;P1;durP2;ratioP2;P2;SDS_P1;SDS_P2;PMS_P1;PMS_P2;Temp;Humidity;BMP_temperature;BMP_pressure;BME280_temperature;BME280_humidity;BME280_pressure;Samples;Min_cycle;Max_cycle;Signal;HPM_P1;HPM_P2
2023/06/05 00:00:07;;;;;;;;;;;21.20;56.10;;;;;;10167259;28;94654;-69
2023/06/05 00:05:09;;;;;;;;;;;21.20;56.10;;;;;;10166419;28;92693;-68
2023/06/05 00:10:13;;;;;;;;;;;21.20;56.00;;;;;;10166889;28;93433;-69
2023/06/05 00:15:15;;;;;;;;;;;21.20;56.00;;;;;;10165296;28;94537;-68
2023/06/05 00:20:17;;;;;;;;;;;21.20;56.00;;;;;;10163671;28;95926;-68
2023/06/05 00:25:18;;;;;;;;;;;21.20;55.90;;;;;;10165709;28;94579;-68
2023/06/05 00:30:20;;;;;;;;;;;21.20;55.90;;;;;;10165371;28;95082;-68
2023/06/05 00:35:22;;;;;;;;;;;21.10;55.80;;;;;;10147622;28;94768;-68
2023/06/05 00:40:23;;;;;;;;;;;21.10;55.90;;;;;;10165838;28;93711;-68
2023/06/05 00:45:25;;;;;;;;;;;21.10;55.80;;;;;;10165021;28;92964;-69
2023/06/05 00:50:27;;;;;;;;;;;21.10;55.80;;;;;;10163795;28;93590;-68
2023/06/05 00:55:29;;;;;;;;;;;21.10;55.80;;;;;;10149230;28;92786;-68
2023/06/05 01:00:31;;;;;;;;;;;21.10;55.80;;;;;;10148066;28;93643;-68
2023/06/05 01:05:33;;;;;;;;;;;21.10;55.70;;;;;;10164140;28;93512;-68
2023/06/05 01:10:35;;;;;;;;;;;21.10;55.70;;;;;;10163926;28;96485;-68
2023/06/05 01:15:37;;;;;;;;;;;21.10;55.70;;;;;;10154729;28;94279;-68
2023/06/05 01:20:39;;;;;;;;;;;21.10;55.70;;;;;;10153494;28;94482;-68
2023/06/05 01:25:42;;;;;;;;;;;21.10;55.70;;;;;;10170847;28;94151;-68
2023/06/05 01:31:03;;;;;;;;;;;21.10;55.70;;;;;;10170865;28;94065;-68
2023/06/05 01:36:05;;;;;;;;;;;21.00;55.60;;;;;;10170290;28;94260;-70
2023/06/05 01:41:08;;;;;;;;;;;21.00;55.50;;;;;;10170563;28;92986;-68
2023/06/05 01:46:10;;;;;;;;;;;21.00;55.40;;;;;;10171293;28;92763;-69
2023/06/05 01:51:12;;;;;;;;;;;21.10;55.50;;;;;;10169057;28;94680;-68
2023/06/05 01:56:19;;;;;;;;;;;21.10;55.50;;;;;;10169924;28;94246;-68
2023/06/05 02:01:22;;;;;;;;;;;21.10;55.40;;;;;;10151431;28;97039;-69
2023/06/05 02:06:25;;;;;;;;;;;21.10;55.30;;;;;;10169739;28;93753;-68
2023/06/05 02:11:26;;;;;;;;;;;21.10;55.30;;;;;;10169512;28;93977;-68
2023/06/05 02:16:28;;;;;;;;;;;21.00;55.20;;;;;;10169162;28;93478;-70
2023/06/05 02:21:32;;;;;;;;;;;21.00;55.20;;;;;;10168939;28;94441;-68
2023/06/05 02:26:33;;;;;;;;;;;21.00;55.20;;;;;;10169320;28;94697;-68
2023/06/05 02:31:36;;;;;;;;;;;21.00;55.20;;;;;;10167616;28;93606;-69
2023/06/05 02:36:38;;;;;;;;;;;21.00;55.10;;;;;;10169670;28;92643;-68
2023/06/05 02:41:40;;;;;;;;;;;21.00;55.10;;;;;;10168425;28;94730;-68
2023/06/05 02:46:42;;;;;;;;;;;21.00;55.10;;;;;;10151133;28;94461;-69
2023/06/05 02:51:44;;;;;;;;;;;21.00;55.10;;;;;;10166110;28;96923;-69
2023/06/05 02:56:46;;;;;;;;;;;21.00;55.00;;;;;;10169096;28;93664;-69
2023/06/05 03:01:49;;;;;;;;;;;21.00;55.00;;;;;;10169005;28;94736;-68
2023/06/05 03:06:53;;;;;;;;;;;21.00;55.10;;;;;;10167816;28;93517;-68
2023/06/05 03:11:55;;;;;;;;;;;21.00;55.00;;;;;;10150523;28;93497;-69
2023/06/05 03:16:58;;;;;;;;;;;20.90;55.00;;;;;;10166620;28;93551;-68
2023/06/05 03:22:00;;;;;;;;;;;20.90;55.00;;;;;;10167697;28;94104;-69
2023/06/05 03:27:01;;;;;;;;;;;20.90;55.00;;;;;;10167819;28;94026;-69
2023/06/05 03:32:03;;;;;;;;;;;20.90;55.00;;;;;;10167438;28;93537;-68
2023/06/05 03:37:05;;;;;;;;;;;20.90;54.90;;;;;;10149226;28;92577;-68
2023/06/05 03:42:09;;;;;;;;;;;20.90;55.00;;;;;;10164266;28;95692;-68
2023/06/05 03:47:10;;;;;;;;;;;20.90;55.00;;;;;;10166274;28;93666;-68
2023/06/05 03:52:16;;;;;;;;;;;20.90;55.00;;;;;;10166550;28;93578;-68
2023/06/05 03:57:20;;;;;;;;;;;20.90;55.00;;;;;;10166168;28;93539;-68
2023/06/05 04:02:21;;;;;;;;;;;20.80;54.90;;;;;;10166683;28;93483;-68
2023/06/05 04:07:23;;;;;;;;;;;20.80;54.90;;;;;;10166137;28;94502;-67
2023/06/05 04:12:25;;;;;;;;;;;20.90;54.80;;;;;;10166449;28;93689;-68
2023/06/05 04:17:26;;;;;;;;;;;20.80;54.70;;;;;;10167297;28;93885;-68
2023/06/05 04:22:28;;;;;;;;;;;20.80;54.70;;;;;;10165928;28;94793;-68
2023/06/05 04:27:30;;;;;;;;;;;20.80;54.80;;;;;;10164835;28;94509;-68
2023/06/05 04:32:37;;;;;;;;;;;20.90;54.80;;;;;;10162306;28;97014;-68
2023/06/05 04:37:39;;;;;;;;;;;20.90;54.80;;;;;;10165332;28;94502;-69
2023/06/05 04:42:41;;;;;;;;;;;20.80;54.80;;;;;;10164502;28;94387;-68
2023/06/05 04:47:43;;;;;;;;;;;20.90;54.70;;;;;;10570814;23;94500;-68
2023/06/05 04:52:45;;;;;;;;;;;20.80;54.70;;;;;;10098176;28;94526;-68
2023/06/05 04:57:48;;;;;;;;;;;20.80;54.70;;;;;;10113909;28;94538;-69
2023/06/05 05:02:50;;;;;;;;;;;20.80;54.70;;;;;;10131227;28;94634;-67
2023/06/05 05:07:53;;;;;;;;;;;20.80;54.80;;;;;;10113381;28;93690;-68
2023/06/05 05:13:00;;;;;;;;;;;20.80;54.80;;;;;;10130596;28;94658;-70
2023/06/05 05:18:03;;;;;;;;;;;20.80;55.00;;;;;;10130951;28;94413;-69
2023/06/05 05:23:07;;;;;;;;;;;20.80;55.20;;;;;;10128970;28;95537;-70
2023/06/05 05:28:10;;;;;;;;;;;20.80;55.20;;;;;;10130707;28;94452;-69
2023/06/05 05:33:11;;;;;;;;;;;20.80;55.30;;;;;;10129123;28;93639;-71
2023/06/05 05:38:14;;;;;;;;;;;20.80;56.00;;;;;;10130268;28;95922;-70
2023/06/05 05:43:16;;;;;;;;;;;20.80;56.60;;;;;;10130548;28;93664;-70
2023/06/05 05:48:17;;;;;;;;;;;20.80;57.50;;;;;;10128624;28;93480;-69
2023/06/05 05:53:19;;;;;;;;;;;20.90;56.80;;;;;;10128433;28;94588;-70
2023/06/05 05:58:21;;;;;;;;;;;20.90;56.70;;;;;;10129393;28;93747;-70
2023/06/05 06:03:23;;;;;;;;;;;20.90;56.80;;;;;;10130203;28;93182;-69
2023/06/05 06:08:26;;;;;;;;;;;21.00;57.10;;;;;;10151205;28;93795;-66
2023/06/05 06:13:28;;;;;;;;;;;21.00;56.80;;;;;;10163793;28;96625;-69
2023/06/05 06:18:30;;;;;;;;;;;21.00;57.00;;;;;;10168501;28;94493;-70
2023/06/05 06:23:32;;;;;;;;;;;21.00;57.00;;;;;;10166550;28;93428;-70
2023/06/05 06:28:34;;;;;;;;;;;21.10;56.60;;;;;;10164095;28;94639;-69
2023/06/05 06:33:37;;;;;;;;;;;21.10;56.30;;;;;;10163968;28;94125;-69
2023/06/05 06:38:39;;;;;;;;;;;21.10;56.20;;;;;;10166822;28;94732;-70
2023/06/05 06:43:41;;;;;;;;;;;21.10;56.10;;;;;;10167695;28;94222;-69
2023/06/05 06:48:43;;;;;;;;;;;21.10;56.00;;;;;;10168060;28;93812;-69
2023/06/05 06:53:45;;;;;;;;;;;21.20;56.00;;;;;;10167539;28;93880;-70
2023/06/05 06:58:47;;;;;;;;;;;21.20;55.90;;;;;;10166974;28;93526;-70
2023/06/05 07:03:49;;;;;;;;;;;21.30;55.80;;;;;;10164558;28;95286;-69
2023/06/05 07:08:51;;;;;;;;;;;21.30;55.50;;;;;;10165379;28;93735;-70
2023/06/05 07:13:54;;;;;;;;;;;21.40;55.40;;;;;;10166453;28;93685;-69
2023/06/05 07:18:56;;;;;;;;;;;21.40;55.30;;;;;;10150094;28;94487;-69
2023/06/05 07:23:57;;;;;;;;;;;21.40;55.10;;;;;;10166585;28;93533;-69
2023/06/05 07:28:59;;;;;;;;;;;21.50;55.10;;;;;;10150324;28;94569;-69
2023/06/05 07:34:02;;;;;;;;;;;21.50;55.10;;;;;;10166429;28;94483;-70
2023/06/05 07:39:03;;;;;;;;;;;21.40;54.90;;;;;;10166983;28;92761;-70
2023/06/05 07:44:07;;;;;;;;;;;21.40;55.00;;;;;;10167274;28;94033;-70
2023/06/05 07:49:09;;;;;;;;;;;21.40;55.10;;;;;;10165009;28;93460;-69
2023/06/05 07:54:11;;;;;;;;;;;21.30;55.00;;;;;;10163460;28;96357;-69
2023/06/05 07:59:14;;;;;;;;;;;21.30;55.10;;;;;;10166496;28;94589;-69
2023/06/05 08:04:17;;;;;;;;;;;21.30;55.10;;;;;;10164643;28;93503;-70
2023/06/05 08:09:19;;;;;;;;;;;21.30;55.20;;;;;;10166218;28;93477;-71
2023/06/05 08:14:21;;;;;;;;;;;21.30;55.00;;;;;;10163592;28;93737;-70
2023/06/05 08:19:23;;;;;;;;;;;21.30;55.10;;;;;;10164713;28;94611;-69
2023/06/05 08:24:26;;;;;;;;;;;21.30;55.10;;;;;;10165018;28;94502;-70
2023/06/05 08:29:29;;;;;;;;;;;21.30;55.10;;;;;;10167456;28;93709;-69
2023/06/05 08:34:31;;;;;;;;;;;21.30;55.10;;;;;;10164435;28;94206;-70
2023/06/05 08:39:33;;;;;;;;;;;21.20;55.10;;;;;;10148134;28;94703;-69
2023/06/05 08:44:35;;;;;;;;;;;21.30;55.10;;;;;;10162795;28;96976;-69
2023/06/05 08:49:41;;;;;;;;;;;21.30;55.10;;;;;;10163364;28;93447;-69
2023/06/05 08:54:43;;;;;;;;;;;21.40;54.90;;;;;;10164316;28;94489;-69
2023/06/05 08:59:45;;;;;;;;;;;21.40;54.90;;;;;;10147593;28;93635;-69
2023/06/05 09:04:49;;;;;;;;;;;21.30;54.80;;;;;;10164455;28;114430;-69
2023/06/05 09:09:51;;;;;;;;;;;21.30;54.90;;;;;;10161873;28;93756;-69
2023/06/05 09:14:53;;;;;;;;;;;21.30;54.90;;;;;;10164306;28;93564;-69
2023/06/05 09:19:58;;;;;;;;;;;21.30;55.00;;;;;;10165168;28;93151;-69
2023/06/05 09:25:01;;;;;;;;;;;21.30;55.00;;;;;;10165537;28;94086;-69
2023/06/05 09:30:04;;;;;;;;;;;21.30;55.00;;;;;;10163593;28;92929;-69
2023/06/05 09:35:06;;;;;;;;;;;21.20;55.00;;;;;;10168193;28;96950;-69
2023/06/05 09:40:14;;;;;;;;;;;21.20;55.10;;;;;;10169583;28;93689;-69
2023/06/05 09:45:16;;;;;;;;;;;21.20;55.00;;;;;;10169854;28;93430;-70
2023/06/05 09:50:22;;;;;;;;;;;21.20;55.10;;;;;;10168910;28;93617;-69
2023/06/05 09:55:25;;;;;;;;;;;21.20;55.10;;;;;;10170466;28;94697;-69
2023/06/05 10:00:28;;;;;;;;;;;21.30;55.10;;;;;;10170316;28;94142;-69
2023/06/05 10:05:31;;;;;;;;;;;21.30;54.90;;;;;;10169233;28;95381;-69
2023/06/05 10:10:34;;;;;;;;;;;21.30;54.80;;;;;;10153387;28;92771;-69
2023/06/05 10:15:38;;;;;;;;;;;21.40;54.70;;;;;;10170173;28;94295;-69
2023/06/05 10:20:40;;;;;;;;;;;21.50;54.60;;;;;;10167366;28;93784;-69
2023/06/05 10:25:42;;;;;;;;;;;21.50;54.50;;;;;;10166858;28;96821;-70
2023/06/05 10:31:02;;;;;;;;;;;21.60;54.50;;;;;;10167633;28;93535;-69
2023/06/05 10:36:24;;;;;;;;;;;21.60;54.30;;;;;;10168793;28;93571;-69
2023/06/05 10:41:26;;;;;;;;;;;21.60;54.30;;;;;;10168283;28;93774;-69
2023/06/05 10:46:37;;;;;;;;;;;21.60;55.30;;;;;;10150906;28;94904;-69
2023/06/05 10:51:43;;;;;;;;;;;21.70;54.20;;;;;;10167462;28;93476;-70
2023/06/05 10:57:02;;;;;;;;;;;21.70;54.20;;;;;;10150768;28;93523;-69
2023/06/05 11:02:04;;;;;;;;;;;21.70;54.30;;;;;;10168149;28;91845;-69
2023/06/05 11:07:20;;;;;;;;;;;21.70;54.30;;;;;;10168026;28;94722;-69
2023/06/05 11:12:22;;;;;;;;;;;21.70;54.30;;;;;;10168024;28;93507;-69
2023/06/05 11:17:27;;;;;;;;;;;21.70;54.30;;;;;;10165355;28;95599;-69
2023/06/05 11:22:29;;;;;;;;;;;21.70;54.30;;;;;;10166967;28;93461;-69
2023/06/05 11:27:41;;;;;;;;;;;21.70;54.40;;;;;;10167405;28;93602;-69
2023/06/05 11:32:43;;;;;;;;;;;21.70;54.40;;;;;;10133843;28;94464;-69
2023/06/05 11:37:46;;;;;;;;;;;21.70;54.40;;;;;;10166878;28;92597;-70
2023/06/05 11:43:05;;;;;;;;;;;21.70;54.40;;;;;;10167167;28;94393;-69
2023/06/05 11:48:13;;;;;;;;;;;21.60;54.50;;;;;;10166759;28;93620;-69
2023/06/05 11:53:15;;;;;;;;;;;21.60;54.50;;;;;;10149702;28;93801;-71
2023/06/05 11:58:23;;;;;;;;;;;21.60;54.50;;;;;;10166296;28;94591;-69
2023/06/05 12:03:28;;;;;;;;;;;21.60;54.50;;;;;;10166449;28;93262;-69
2023/06/05 12:08:32;;;;;;;;;;;21.60;54.50;;;;;;10163453;28;96838;-69
2023/06/05 12:13:55;;;;;;;;;;;21.60;54.50;;;;;;10164789;28;93232;-69
2023/06/05 12:18:57;;;;;;;;;;;21.60;54.40;;;;;;10166801;28;93162;-70
2023/06/05 12:24:22;;;;;;;;;;;21.60;54.60;;;;;;10166064;28;94726;-69
2023/06/05 12:29:26;;;;;;;;;;;21.60;54.70;;;;;;10166257;28;93548;-69
2023/06/05 12:34:44;;;;;;;;;;;21.60;54.70;;;;;;10164565;28;92877;-69
2023/06/05 12:39:49;;;;;;;;;;;21.60;54.70;;;;;;10166150;28;93276;-69
2023/06/05 12:44:51;;;;;;;;;;;21.60;54.80;;;;;;10165375;28;93914;-70
2023/06/05 12:49:53;;;;;;;;;;;21.60;54.80;;;;;;10147250;28;94449;-70
2023/06/05 12:54:56;;;;;;;;;;;21.60;54.80;;;;;;10165316;28;94636;-69
2023/06/05 12:59:58;;;;;;;;;;;21.60;54.90;;;;;;10162037;28;96841;-70
2023/06/05 13:05:00;;;;;;;;;;;21.60;54.90;;;;;;10165087;28;93496;-69
2023/06/05 13:10:03;;;;;;;;;;;21.60;54.80;;;;;;10171259;28;94060;-69
2023/06/05 13:15:06;;;;;;;;;;;21.60;54.90;;;;;;10172518;28;92830;-69
2023/06/05 13:20:10;;;;;;;;;;;21.60;54.90;;;;;;10171593;28;94424;-69
2023/06/05 13:25:12;;;;;;;;;;;21.60;54.90;;;;;;10172569;28;94127;-70
2023/06/05 13:30:14;;;;;;;;;;;21.60;55.00;;;;;;10153294;28;93419;-70
2023/06/05 13:35:16;;;;;;;;;;;21.60;55.10;;;;;;10172896;28;93815;-69
2023/06/05 13:40:18;;;;;;;;;;;21.60;55.20;;;;;;10170141;28;93615;-69
2023/06/05 13:45:22;;;;;;;;;;;21.60;55.20;;;;;;10170322;28;94499;-69
2023/06/05 13:50:25;;;;;;;;;;;21.60;55.30;;;;;;10167429;28;96913;-70
2023/06/05 13:55:27;;;;;;;;;;;21.60;55.40;;;;;;10153286;28;93558;-69
2023/06/05 14:00:29;;;;;;;;;;;21.60;55.30;;;;;;10169640;28;94368;-69
2023/06/05 14:05:31;;;;;;;;;;;21.60;55.40;;;;;;10170577;28;93989;-70
2023/06/05 14:10:35;;;;;;;;;;;21.50;55.30;;;;;;10169810;28;93597;-70
2023/06/05 14:15:37;;;;;;;;;;;21.50;55.40;;;;;;10169569;28;93569;-69
2023/06/05 14:20:39;;;;;;;;;;;21.50;55.40;;;;;;10169702;28;93471;-69
2023/06/05 14:25:41;;;;;;;;;;;21.50;55.50;;;;;;10170389;28;93796;-69
2023/06/05 14:30:42;;;;;;;;;;;21.50;55.50;;;;;;10170584;28;94478;-69
2023/06/05 14:35:44;;;;;;;;;;;21.50;55.50;;;;;;10169684;28;94479;-70
2023/06/05 14:40:50;;;;;;;;;;;21.50;55.50;;;;;;10165922;28;96214;-69
2023/06/05 14:45:52;;;;;;;;;;;21.50;55.60;;;;;;10169197;28;93857;-70
2023/06/05 14:50:54;;;;;;;;;;;21.50;55.60;;;;;;10150661;28;93687;-70
2023/06/05 14:55:55;;;;;;;;;;;21.50;55.60;;;;;;10168280;28;93502;-71
2023/06/05 15:01:00;;;;;;;;;;;21.50;55.60;;;;;;10168520;28;94473;-70
2023/06/05 15:06:02;;;;;;;;;;;21.50;55.60;;;;;;10168920;28;93354;-69
2023/06/05 15:11:22;;;;;;;;;;;21.50;55.70;;;;;;10167173;28;93308;-70
2023/06/05 15:16:26;;;;;;;;;;;21.50;55.70;;;;;;10168275;28;93727;-69
2023/06/05 15:21:42;;;;;;;;;;;21.50;55.70;;;;;;10152005;28;93525;-70
2023/06/05 15:26:44;;;;;;;;;;;21.50;55.70;;;;;;10167239;28;93555;-69
2023/06/05 15:31:46;;;;;;;;;;;21.50;55.70;;;;;;10164390;28;95786;-70
2023/06/05 15:36:50;;;;;;;;;;;21.50;55.70;;;;;;10151108;28;94530;-69
2023/06/05 15:41:52;;;;;;;;;;;21.50;55.90;;;;;;10150219;28;94821;-69
2023/06/05 15:46:54;;;;;;;;;;;21.50;55.90;;;;;;10166503;28;94264;-69
2023/06/05 15:51:55;;;;;;;;;;;21.50;56.00;;;;;;10167075;28;94476;-69
2023/06/05 15:57:01;;;;;;;;;;;21.40;56.10;;;;;;10165283;28;93584;-70
2023/06/05 16:02:03;;;;;;;;;;;21.40;56.00;;;;;;10149038;28;94375;-69
2023/06/05 16:07:05;;;;;;;;;;;21.40;56.20;;;;;;10168412;28;93790;-69
2023/06/05 16:12:07;;;;;;;;;;;21.40;56.20;;;;;;10167292;28;95060;-70
2023/06/05 16:17:09;;;;;;;;;;;21.40;56.10;;;;;;10167416;28;93753;-69
2023/06/05 16:22:11;;;;;;;;;;;21.40;56.10;;;;;;10163722;28;95895;-69
2023/06/05 16:27:13;;;;;;;;;;;21.40;56.10;;;;;;10165529;28;93665;-70
2023/06/05 16:32:15;;;;;;;;;;;21.40;56.20;;;;;;10165336;28;94374;-69
2023/06/05 16:37:17;;;;;;;;;;;21.40;56.00;;;;;;10148804;28;93620;-69
2023/06/05 16:42:18;;;;;;;;;;;21.50;56.10;;;;;;10170615;28;94554;-69
2023/06/05 16:47:20;;;;;;;;;;;21.50;56.20;;;;;;10172903;28;93365;-69
2023/06/05 16:52:25;;;;;;;;;;;21.50;56.30;;;;;;10171987;28;94539;-70
2023/06/05 16:57:27;;;;;;;;;;;21.50;56.40;;;;;;10156310;28;93730;-68
2023/06/05 17:02:29;;;;;;;;;;;21.50;56.80;;;;;;10172761;28;94502;-66
2023/06/05 17:07:31;;;;;;;;;;;21.70;57.60;;;;;;10155468;28;93485;-67
2023/06/05 17:12:33;;;;;;;;;;;21.70;57.90;;;;;;10169174;28;95827;-68
2023/06/05 17:17:34;;;;;;;;;;;21.80;57.60;;;;;;10171367;28;94533;-68
2023/06/05 17:22:36;;;;;;;;;;;21.90;57.60;;;;;;10171040;28;93963;-68
2023/06/05 17:27:39;;;;;;;;;;;21.90;57.80;;;;;;10170779;28;94796;-67
2023/06/05 17:32:40;;;;;;;;;;;21.90;57.80;;;;;;10170816;28;93571;-67
2023/06/05 17:37:42;;;;;;;;;;;22.00;57.60;;;;;;10170379;28;93490;-67
2023/06/05 17:42:44;;;;;;;;;;;22.00;57.70;;;;;;10153381;28;93502;-68
2023/06/05 17:47:46;;;;;;;;;;;22.00;57.70;;;;;;10169917;28;92805;-69
2023/06/05 17:52:48;;;;;;;;;;;22.00;57.90;;;;;;10153804;28;93480;-68
2023/06/05 17:57:53;;;;;;;;;;;22.00;58.10;;;;;;10169260;28;93428;-68
2023/06/05 18:02:55;;;;;;;;;;;22.10;57.80;;;;;;10167173;28;95783;-68
2023/06/05 18:07:57;;;;;;;;;;;22.20;57.70;;;;;;10170004;28;92664;-68
2023/06/05 18:12:59;;;;;;;;;;;22.20;57.70;;;;;;10170530;28;94333;-68
2023/06/05 18:18:01;;;;;;;;;;;22.20;57.60;;;;;;10169937;28;94860;-68
2023/06/05 18:23:03;;;;;;;;;;;22.30;57.60;;;;;;10170012;28;94387;-69
2023/06/05 18:28:05;;;;;;;;;;;22.30;57.50;;;;;;10168790;28;94485;-68
2023/06/05 18:33:09;;;;;;;;;;;22.30;57.40;;;;;;10150890;28;94772;-69
2023/06/05 18:38:11;;;;;;;;;;;22.30;57.30;;;;;;10153510;28;94260;-68
2023/06/05 18:43:16;;;;;;;;;;;22.20;57.30;;;;;;10169337;28;93515;-69
2023/06/05 18:48:18;;;;;;;;;;;22.20;57.30;;;;;;10168442;28;93597;-68
2023/06/05 18:53:19;;;;;;;;;;;22.20;57.30;;;;;;10166498;28;96693;-69
2023/06/05 18:58:21;;;;;;;;;;;22.00;57.20;;;;;;10169237;28;94639;-68
2023/06/05 19:03:23;;;;;;;;;;;22.00;57.20;;;;;;10167662;28;94453;-68
2023/06/05 19:08:25;;;;;;;;;;;22.00;57.30;;;;;;10168199;28;93482;-69
2023/06/05 19:13:27;;;;;;;;;;;21.90;57.10;;;;;;10167499;28;97186;-68
2023/06/05 19:18:28;;;;;;;;;;;21.90;57.20;;;;;;10168020;28;93486;-69
2023/06/05 19:23:30;;;;;;;;;;;21.90;57.10;;;;;;10168511;28;95011;-69
2023/06/05 19:28:41;;;;;;;;;;;21.90;57.10;;;;;;10624682;27;88501;-67
2023/06/05 19:33:43;;;;;;;;;;;21.80;57.10;;;;;;10622541;27;89197;-66
2023/06/05 19:38:45;;;;;;;;;;;21.80;57.10;;;;;;10603551;27;88944;-67
2023/06/05 19:43:47;;;;;;;;;;;21.80;57.20;;;;;;10622440;27;89966;-67
2023/06/05 19:48:50;;;;;;;;;;;21.70;57.30;;;;;;10622344;27;88988;-68
2023/06/05 19:53:52;;;;;;;;;;;21.80;57.30;;;;;;10603269;27;89345;-67
2023/06/05 19:58:53;;;;;;;;;;;21.70;57.30;;;;;;10622626;27;88957;-66
2023/06/05 20:03:55;;;;;;;;;;;21.70;57.40;;;;;;10620686;27;88976;-66
2023/06/05 20:08:57;;;;;;;;;;;21.70;57.30;;;;;;10619776;27;88789;-66
2023/06/05 20:13:59;;;;;;;;;;;21.70;57.50;;;;;;10601819;27;89912;-68
2023/06/05 20:19:01;;;;;;;;;;;21.70;57.60;;;;;;10620590;27;89938;-68
2023/06/05 20:24:06;;;;;;;;;;;21.60;57.60;;;;;;10618961;27;90483;-69
2023/06/05 20:29:09;;;;;;;;;;;21.60;57.50;;;;;;10600801;27;89202;-68
2023/06/05 20:34:11;;;;;;;;;;;21.60;57.50;;;;;;10620420;27;89959;-68
2023/06/05 20:39:18;;;;;;;;;;;21.60;57.50;;;;;;10594468;27;89015;-69
2023/06/05 20:44:22;;;;;;;;;;;21.60;57.50;;;;;;10590069;27;89718;-68
2023/06/05 20:49:24;;;;;;;;;;;21.60;58.20;;;;;;10590071;27;88713;-68
2023/06/05 20:54:26;;;;;;;;;;;21.60;57.50;;;;;;10590439;27;90043;-68
2023/06/05 20:59:29;;;;;;;;;;;21.60;57.50;;;;;;10556213;27;90059;-68
2023/06/05 21:04:31;;;;;;;;;;;21.60;57.40;;;;;;10590330;27;89154;-68
2023/06/05 21:09:33;;;;;;;;;;;21.60;57.40;;;;;;10590163;27;89008;-68
2023/06/05 21:14:37;;;;;;;;;;;21.60;57.30;;;;;;10590020;27;89683;-68
2023/06/05 21:19:40;;;;;;;;;;;21.60;57.30;;;;;;10590040;27;89475;-68
2023/06/05 21:24:42;;;;;;;;;;;21.60;57.20;;;;;;10590322;27;89392;-68
2023/06/05 21:29:44;;;;;;;;;;;21.60;57.10;;;;;;10589702;27;88959;-68
2023/06/05 21:34:46;;;;;;;;;;;21.60;57.00;;;;;;10588456;27;89202;-68
2023/06/05 21:39:48;;;;;;;;;;;21.50;56.90;;;;;;10589563;27;89078;-68
2023/06/05 21:44:49;;;;;;;;;;;21.50;56.90;;;;;;10590532;27;89996;-68
2023/06/05 21:49:51;;;;;;;;;;;21.50;56.70;;;;;;10588722;27;89968;-68
2023/06/05 21:54:53;;;;;;;;;;;21.50;56.70;;;;;;10589113;27;89132;-69
2023/06/05 21:59:55;;;;;;;;;;;21.50;56.70;;;;;;10588631;27;89988;-68
2023/06/05 22:04:57;;;;;;;;;;;21.40;56.50;;;;;;10588424;27;90042;-68
2023/06/05 22:09:59;;;;;;;;;;;21.40;56.40;;;;;;10587918;27;90009;-68
2023/06/05 22:15:01;;;;;;;;;;;21.40;56.30;;;;;;10587407;27;89233;-68
2023/06/05 22:20:06;;;;;;;;;;;21.40;56.30;;;;;;10588358;27;89925;-68
2023/06/05 22:25:08;;;;;;;;;;;21.40;56.20;;;;;;10587519;27;90034;-68
2023/06/05 22:30:10;;;;;;;;;;;21.40;56.20;;;;;;10587930;27;90195;-68
2023/06/05 22:35:14;;;;;;;;;;;21.30;56.20;;;;;;10586389;27;88989;-68
2023/06/05 22:40:15;;;;;;;;;;;21.30;56.10;;;;;;10568291;27;89053;-68
2023/06/05 22:45:17;;;;;;;;;;;21.30;56.00;;;;;;10585377;27;89553;-68
2023/06/05 22:50:20;;;;;;;;;;;21.30;56.10;;;;;;10586673;27;88521;-68
2023/06/05 22:55:22;;;;;;;;;;;21.30;55.90;;;;;;10586023;27;89980;-69
2023/06/05 23:00:24;;;;;;;;;;;21.30;56.00;;;;;;10586329;27;90045;-67
2023/06/05 23:05:26;;;;;;;;;;;21.30;55.90;;;;;;10586099;27;89037;-68
2023/06/05 23:10:28;;;;;;;;;;;21.30;55.90;;;;;;10567972;27;89148;-68
2023/06/05 23:15:30;;;;;;;;;;;21.30;55.80;;;;;;10567251;27;90378;-69
2023/06/05 23:20:31;;;;;;;;;;;21.30;55.80;;;;;;10567537;27;88946;-68
2023/06/05 23:25:39;;;;;;;;;;;21.20;55.70;;;;;;10584687;27;89687;-68
2023/06/05 23:30:41;;;;;;;;;;;21.20;55.60;;;;;;10586024;27;90164;-67
2023/06/05 23:35:43;;;;;;;;;;;21.30;55.70;;;;;;10586147;27;88272;-69
2023/06/05 23:40:45;;;;;;;;;;;21.20;55.50;;;;;;10567435;27;88773;-68
2023/06/05 23:45:47;;;;;;;;;;;21.20;55.50;;;;;;10584381;27;88977;-68
2023/06/05 23:50:48;;;;;;;;;;;21.20;55.40;;;;;;10585249;27;90250;-68
2023/06/05 23:55:52;;;;;;;;;;;21.20;55.40;;;;;;10585498;27;89961;-67
